Terminal Aerodrome Forecast
Issued by NWS

Home | Current Version | Previous Version | Graphics & Text | Print | Product List | Glossary On
Versions: 1 2 3 4 5 6 7 8 9 10 11 12 13 14 15 16 17
000
FTUS43 KLSX 211136
TAFSUS
TAF
KSUS 211136Z 2112/2212 10006KT P6SM SCT150 BKN250
     FM211800 10010G18KT P6SM BKN150
     FM212300 10006KT P6SM SCT050 OVC140
     FM220700 06006KT P6SM VCSH OVC040=

USA.gov is the U.S. government's official web portal to all federal, state and local government web resources and services.